Latest Weather Observations for Amberley

IDQ60901

Issued at 1:31 pm EST Friday 27 March 2015 (issued every 10 minutes, with the page automatically refreshed every 10 minutes)

About weather observations | Map of Brisbane area stations | Latest observations for Brisbane area | Other Formats
Station Details ID: 040004 Name: AMBERLEY AMO Lat: -27.63 Lon: 152.71 Height: 24.2 m
Data from the previous 72 hours. | See also: Recent months at Amberley
Date/Time
EST
Tmp

°C
App
Tmp
°C
Dew
Point
°C
Rel
Hum
%
Delta-T

°C
Wind Press
QNH
hPa
Press
MSL
hPa
Rain
since
9 am
mm
Dir
 
Spd
km/h
Gust
km/h
Spd
kts
Gust
kts
27/01:00pm 31.0 34.0 19.2 49 7.7 NW 2 9 1 5 1016.5 - 0.0
27/12:30pm 29.8 32.5 20.2 56 6.3 W 6 11 3 6 1016.9 - 0.0
27/12:00pm 29.5 32.1 20.1 57 6.2 W 6 11 3 6 1017.4 1017.3 0.0
27/11:30am 28.8 31.3 21.0 62 5.2 WNW 9 13 5 7 1018.0 - 0.0
27/11:00am 28.4 32.4 22.0 68 4.3 WNW 4 9 2 5 1018.5 - 0.0
27/10:30am 26.9 31.6 22.0 74 3.3 CALM 0 7 0 4 1018.8 - 0.0
27/10:00am 25.9 29.1 21.7 77 2.8 NW 7 11 4 6 1019.0 - 0.0
27/09:30am 24.5 27.5 21.9 85 1.7 NW 9 13 5 7 1019.2 - 0.0
27/08:00am 23.3 27.7 22.1 93 0.8 N 2 7 1 4 1018.8 - 0.4
27/07:30am 22.8 27.5 21.9 95 0.6 CALM 0 4 0 2 1018.5 - 0.4
27/07:00am 22.6 27.2 21.7 95 0.6 CALM 0 0 0 0 1018.1 - 0.4
27/06:30am 22.4 26.5 21.6 95 0.5 SSW 2 7 1 4 1017.6 - 0.4
27/05:30am 22.0 26.4 21.4 96 0.4 CALM 0 0 0 0 1017.0 - 0.4
27/05:22am 21.9 26.2 21.1 95 0.5 CALM 0 6 0 3 1016.9 - 0.4
27/05:00am 21.7 24.8 21.1 96 0.4 NW 6 7 3 4 1016.6 - 0.4
27/04:30am 21.6 24.5 21.0 96 0.4 N 7 9 4 5 1016.1 - 0.4
27/04:00am 21.5 25.7 21.0 97 0.3 CALM 0 0 0 0 1016.1 - 0.4
27/03:39am 21.8 26.0 21.0 95 0.5 CALM 0 0 0 0 1016.1 - 0.4
27/03:30am 22.1 26.5 21.3 95 0.5 CALM 0 0 0 0 1016.1 - 0.4
27/03:00am 22.7 27.2 21.6 93 0.7 CALM 0 0 0 0 1016.2 1016.1 0.4
27/02:30am 22.3 26.8 21.5 95 0.5 CALM 0 0 0 0 1016.3 - 0.4
27/02:00am 22.3 26.8 21.5 95 0.5 CALM 0 0 0 0 1016.5 - 0.4
27/01:30am 22.5 26.9 21.4 93 0.7 CALM 0 0 0 0 1016.7 - 0.4
27/01:00am 22.2 26.6 21.4 95 0.5 CALM 0 0 0 0 1017.1 - 0.4
27/12:54am 22.2 26.6 21.4 95 0.5 CALM 0 0 0 0 1017.2 - 0.4
27/12:30am 22.1 26.5 21.3 95 0.5 CALM 0 6 0 3 1017.3 - 0.4
 
Date/Time
EST
Tmp

°C
App
Tmp
°C
Dew
Point
°C
Rel
Hum
%
Delta-T

°C
Wind Press
QNH
hPa
Press
MSL
hPa
Rain
since
9 am
mm
Dir
 
Spd
km/h
Gust
km/h
Spd
kts
Gust
kts
26/11:30pm 22.7 27.2 21.5 93 0.8 CALM 0 0 0 0 1017.6 - 0.4
26/11:00pm 22.3 25.4 21.5 95 0.5 N 7 11 4 6 1017.5 - 0.4
26/10:30pm 22.9 27.5 21.8 93 0.7 CALM 0 0 0 0 1017.6 - 0.4
26/10:00pm 22.8 27.5 21.9 95 0.6 CALM 0 0 0 0 1017.9 - 0.4
26/09:30pm 23.1 27.3 21.7 92 0.9 E 2 9 1 5 1017.8 - 0.4
26/09:00pm 23.1 27.8 22.0 93 0.7 CALM 0 0 0 0 1017.9 1017.8 0.4
26/08:30pm 23.5 27.5 22.0 91 1.0 NW 4 9 2 5 1017.9 - 0.4
26/08:00pm 23.6 26.7 22.1 91 1.0 N 9 15 5 8 1017.9 - 0.4
26/07:30pm 23.9 28.8 22.3 91 1.1 CALM 0 0 0 0 1017.0 - 0.4
26/07:00pm 23.8 26.1 22.1 90 1.1 N 13 17 7 9 1016.8 - 0.4
26/06:30pm 24.2 27.0 22.3 89 1.3 NW 11 15 6 8 1015.9 - 0.4
26/05:30pm 27.3 29.3 22.3 74 3.4 E 15 19 8 10 1015.2 - 0.0
26/05:00pm 27.8 29.2 21.8 70 4.0 ENE 17 22 9 12 1014.6 - 0.0
26/04:30pm 28.4 29.7 21.7 67 4.5 ENE 17 22 9 12 1014.4 - 0.0
26/04:18pm 28.6 29.5 21.6 66 4.7 ENE 19 28 10 15 1014.1 - 0.0
26/04:00pm 29.1 29.9 21.7 64 5.0 ENE 20 28 11 15 1013.9 - 0.0
26/03:30pm 30.6 31.7 23.0 64 5.2 ENE 22 30 12 16 1013.8 - 0.0
26/03:00pm 30.8 32.6 22.6 61 5.6 NE 17 24 9 13 1014.0 1013.9 0.0
26/02:30pm 31.2 33.3 22.4 59 6.0 ENE 15 22 8 12 1014.3 - 0.0
26/02:00pm 31.0 34.6 23.0 62 5.5 ENE 9 15 5 8 1014.9 - 0.0
26/01:30pm 30.2 32.2 22.9 65 5.0 E 17 22 9 12 1015.0 - 0.0
26/01:00pm 31.9 34.9 22.0 55 6.7 NNW 9 13 5 7 1015.3 - 0.0
26/12:30pm 30.8 34.0 22.3 60 5.8 SW 9 13 5 7 1016.2 - 0.0
26/12:00pm 31.1 35.0 23.6 64 5.2 NNW 9 15 5 8 1016.7 1016.6 0.0
26/11:30am 30.0 34.5 22.2 63 5.3 NNW 2 11 1 6 1017.2 - 0.0
26/11:00am 29.5 33.3 22.7 67 4.6 NNW 7 13 4 7 1017.5 - 0.0
26/10:30am 28.9 34.3 23.8 74 3.5 N 2 11 1 6 1017.7 - 0.0
26/10:00am 27.9 33.1 23.5 77 3.0 WNW 2 7 1 4 1018.2 - 0.0
26/09:30am 26.2 31.7 24.0 88 1.5 NW 2 7 1 4 1018.4 - 0.0
26/09:12am 26.0 31.4 23.8 88 1.5 N 2 7 1 4 1018.3 - 0.0
26/09:00am 26.0 31.6 23.5 86 1.7 CALM 0 0 0 0 1018.2 1018.1 22.8
26/08:30am 25.2 30.7 23.4 90 1.2 CALM 0 0 0 0 1018.0 - 22.8
26/08:00am 24.8 29.9 23.3 91 1.0 ESE 2 7 1 4 1017.8 - 22.8
26/07:30am 24.6 30.0 23.3 92 0.9 CALM 0 0 0 0 1017.6 - 22.8
26/07:00am 24.2 29.6 23.3 95 0.6 CALM 0 0 0 0 1017.4 - 22.8
26/06:30am 24.2 29.6 23.3 95 0.6 CALM 0 0 0 0 1017.1 - 22.8
26/06:00am 24.2 29.8 23.5 96 0.5 CALM 0 0 0 0 1016.9 1016.8 22.8
26/05:30am 24.0 29.5 23.4 96 0.4 CALM 0 0 0 0 1016.6 - 22.8
26/05:00am 23.9 28.0 23.3 96 0.4 ESE 7 11 4 6 1016.3 - 22.6
26/04:30am 23.7 29.1 23.3 98 0.3 CALM 0 0 0 0 1016.0 - 22.6
26/04:12am 23.7 27.4 23.3 98 0.3 SSW 9 11 5 6 1015.8 - 22.6
26/04:00am 23.7 26.7 23.3 98 0.3 SSW 13 17 7 9 1015.7 - 22.6
26/03:30am 24.2 28.3 23.3 95 0.6 S 7 13 4 7 1015.5 - 14.2
26/03:29am 24.2 28.3 23.3 95 0.6 S 7 13 4 7 1015.5 - 14.2
26/03:00am 24.2 29.6 23.3 95 0.6 CALM 0 0 0 0 1015.3 1015.2 13.4
26/02:30am 24.3 29.7 23.3 94 0.7 CALM 0 0 0 0 1015.4 - 12.8
26/02:00am 24.3 29.7 23.3 94 0.7 CALM 0 0 0 0 1015.7 - 12.8
26/01:30am 24.3 29.4 23.3 94 0.7 SSW 2 7 1 4 1015.8 - 12.8
26/01:00am 24.3 28.7 23.4 95 0.6 S 6 9 3 5 1015.8 - 12.8
26/12:30am 24.3 29.8 23.4 95 0.6 CALM 0 0 0 0 1016.2 - 12.8
26/12:00am 24.2 29.6 23.2 94 0.7 CALM 0 0 0 0 1016.4 1016.3 12.8
 
Date/Time
EST
Tmp

°C
App
Tmp
°C
Dew
Point
°C
Rel
Hum
%
Delta-T

°C
Wind Press
QNH
hPa
Press
MSL
hPa
Rain
since
9 am
mm
Dir
 
Spd
km/h
Gust
km/h
Spd
kts
Gust
kts
25/11:30pm 24.1 27.4 23.2 95 0.6 S 11 13 6 7 1016.1 - 12.8
25/11:00pm 24.1 27.4 23.2 95 0.6 SE 11 19 6 10 1016.0 - 12.8
25/10:53pm 24.2 27.9 23.3 95 0.6 SSE 9 13 5 7 1016.2 - 12.8
25/10:37pm 24.2 28.3 23.3 95 0.6 SE 7 11 4 6 1016.3 - 12.8
25/10:30pm 24.2 27.9 23.3 95 0.6 SSE 9 13 5 7 1016.4 - 12.8
25/10:24pm 24.2 27.6 23.3 95 0.6 SE 11 15 6 8 1016.5 - 12.8
25/10:00pm 24.5 28.4 23.6 95 0.6 SE 9 13 5 7 1016.4 - 12.2
25/09:30pm 24.5 27.4 23.8 96 0.5 ESE 15 19 8 10 1016.1 - 12.2
25/09:22pm 24.5 27.4 23.8 96 0.5 ESE 15 20 8 11 1016.0 - 12.2
25/09:00pm 24.5 27.6 23.6 95 0.6 ESE 13 20 7 11 1015.9 1015.8 11.0
25/08:43pm 24.6 27.9 23.9 96 0.5 ESE 13 17 7 9 1015.9 - 6.8
25/08:36pm 24.6 26.2 23.9 96 0.5 SSE 22 28 12 15 1015.7 - 6.0
25/08:30pm 24.7 26.6 23.8 95 0.6 SE 20 28 11 15 1015.5 - 6.0
25/08:11pm 25.4 25.7 23.6 90 1.2 ESE 28 30 15 16 1015.2 - 1.2
25/08:00pm 26.3 28.1 23.2 83 2.1 S 19 28 10 15 1015.4 - 0.2
25/07:30pm 26.8 28.5 23.1 80 2.5 SSE 19 26 10 14 1014.6 - 0.2
25/07:00pm 27.2 29.1 22.8 77 3.0 ENE 17 22 9 12 1013.7 - 0.2
25/06:30pm 27.4 29.3 22.8 76 3.1 E 17 24 9 13 1013.2 - 0.2
25/06:00pm 27.7 29.2 23.0 75 3.2 ENE 20 28 11 15 1013.1 1013.0 0.2
25/05:30pm 28.4 30.2 23.3 74 3.5 ENE 19 28 10 15 1012.7 - 0.2
25/05:12pm 28.7 30.5 23.3 72 3.7 ENE 19 30 10 16 1012.6 - 0.2
25/05:00pm 28.7 29.7 23.5 73 3.6 ENE 24 30 13 16 1012.1 - 0.2
25/04:52pm 28.9 29.9 23.5 72 3.7 NE 24 32 13 17 1012.2 - 0.0
25/04:30pm 29.7 29.9 22.7 66 4.8 NE 26 32 14 17 1012.0 - 0.0
25/04:00pm 30.8 31.7 22.6 61 5.6 ENE 22 30 12 16 1011.9 - 0.0
25/03:30pm 31.5 32.3 21.7 56 6.6 NE 20 30 11 16 1011.7 - 0.0
25/03:00pm 32.8 35.2 20.9 49 8.0 ENE 9 17 5 9 1011.8 1011.7 0.0
25/02:30pm 32.3 34.1 21.2 52 7.5 ENE 13 17 7 9 1011.9 - 0.0
25/02:00pm 33.1 35.4 21.4 50 7.9 NE 11 17 6 9 1012.1 - 0.0
25/01:30pm 32.7 35.4 21.3 51 7.7 NE 9 17 5 9 1012.3 - 0.0
25/01:00pm 31.8 35.3 21.1 53 7.2 NW 4 15 2 8 1012.7 - 0.0
25/12:30pm 31.6 33.7 21.0 53 7.1 N 11 17 6 9 1013.1 - 0.0
25/12:00pm 31.2 33.9 20.7 53 7.0 NW 7 19 4 10 1013.6 1013.5 0.0
25/11:30am 30.1 31.6 20.6 56 6.3 NNW 13 24 7 13 1014.1 - 0.0
25/11:00am 30.0 31.6 20.8 57 6.1 NNW 13 20 7 11 1014.6 - 0.0
25/10:30am 29.9 31.9 20.7 57 6.1 NNW 11 15 6 8 1015.0 - 0.0
25/10:00am 28.4 29.7 20.2 61 5.4 NNW 13 19 7 10 1015.3 - 0.0
25/09:30am 27.8 29.2 20.3 63 4.9 NNW 13 20 7 11 1015.5 - 0.0
25/09:00am 27.4 28.0 20.2 65 4.7 NW 17 26 9 14 1015.5 1015.4 0.0
25/08:30am 26.2 26.4 20.2 69 3.9 NNW 19 28 10 15 1015.4 - 0.0
25/08:00am 25.5 27.4 20.6 74 3.2 NNW 11 17 6 9 1015.3 - 0.0
25/07:30am 24.9 28.9 21.3 80 2.4 NNE 2 7 1 4 1015.1 - 0.0
25/07:00am 22.8 27.0 21.0 89 1.2 CALM 0 0 0 0 1014.8 - 0.0
25/06:30am 22.0 25.0 20.8 93 0.8 NNE 6 7 3 4 1014.4 - 0.0
25/06:00am 21.7 25.7 20.6 93 0.7 CALM 0 0 0 0 1014.3 1014.2 0.0
25/05:30am 21.7 24.6 20.6 93 0.7 SW 6 7 3 4 1014.1 - 0.0
25/05:00am 22.0 26.2 20.9 93 0.7 CALM 0 0 0 0 1013.8 - 0.0
25/04:30am 21.9 26.0 20.7 93 0.8 CALM 0 0 0 0 1013.3 - 0.0
25/04:00am 22.2 26.3 20.7 91 1.0 CALM 0 0 0 0 1013.2 - 0.0
25/03:30am 22.1 26.1 20.6 91 1.0 CALM 0 0 0 0 1012.9 - 0.0
25/03:00am 21.8 24.7 20.6 93 0.8 NE 6 7 3 4 1012.3 1012.2 0.0
25/02:30am 21.5 24.7 20.4 93 0.7 N 4 9 2 5 1012.8 - 0.0
25/02:00am 21.2 25.1 20.3 95 0.6 CALM 0 0 0 0 1013.2 - 0.0
25/01:30am 21.0 24.8 20.2 95 0.5 CALM 0 0 0 0 1013.6 - 0.0
25/01:00am 21.0 23.1 20.2 95 0.5 SSW 9 11 5 6 1013.8 - 0.0
25/12:30am 20.9 24.6 20.0 95 0.6 CALM 0 0 0 0 1013.8 - 0.0
25/12:00am 20.8 24.3 19.5 92 0.8 CALM 0 6 0 3 1014.0 1013.9 0.0
 
Date/Time
EST
Tmp

°C
App
Tmp
°C
Dew
Point
°C
Rel
Hum
%
Delta-T

°C
Wind Press
QNH
hPa
Press
MSL
hPa
Rain
since
9 am
mm
Dir
 
Spd
km/h
Gust
km/h
Spd
kts
Gust
kts
24/11:30pm 21.1 23.3 19.7 92 0.9 SW 7 9 4 5 1014.0 - 0.0
24/11:00pm 21.3 24.2 19.9 92 0.9 W 4 7 2 4 1013.9 - 0.0
24/10:30pm 22.5 26.3 20.2 87 1.5 CALM 0 0 0 0 1014.2 - 0.0
24/10:00pm 23.0 26.8 20.2 84 1.8 CALM 0 0 0 0 1014.3 - 0.0
24/09:30pm 23.5 26.1 20.4 83 2.0 E 7 7 4 4 1014.2 - 0.0
24/09:00pm 24.0 26.2 20.5 81 2.3 E 9 11 5 6 1014.1 1014.0 0.0
24/08:30pm 24.4 26.5 20.2 77 2.7 ENE 9 15 5 8 1014.4 - 0.0
24/08:00pm 24.8 26.0 20.0 74 3.1 E 13 17 7 9 1014.2 - 0.0
24/07:30pm 25.2 26.1 20.1 73 3.3 ENE 15 17 8 9 1013.6 - 0.0
24/07:00pm 25.6 26.6 20.2 72 3.5 ENE 15 19 8 10 1013.1 - 0.0
24/06:30pm 26.3 26.9 20.3 69 3.9 NE 17 22 9 12 1012.6 - 0.0
24/06:00pm 27.1 28.0 20.1 65 4.6 NE 15 20 8 11 1012.2 1012.1 0.0
24/05:30pm 28.2 28.4 20.1 61 5.3 NE 19 24 10 13 1011.9 - 0.0
24/05:00pm 29.6 29.6 17.3 47 7.8 NNE 13 19 7 10 1011.6 - 0.0
24/04:30pm 30.2 30.0 15.7 41 9.0 N 11 17 6 9 1011.7 - 0.0
24/04:00pm 30.5 30.6 16.5 43 8.8 N 11 15 6 8 1011.8 - 0.0
24/03:30pm 30.5 31.6 17.1 44 8.5 N 7 13 4 7 1012.0 - 0.0
24/03:00pm 30.7 31.6 17.5 45 8.4 N 9 15 5 8 1012.2 1012.1 0.0
24/02:30pm 29.7 28.7 16.6 45 8.2 NW 17 22 9 12 1012.6 - 0.0
24/02:00pm 29.8 30.7 17.5 47 7.8 NNW 9 20 5 11 1013.0 - 0.0

Latest Capital City Observations: Canberra | Sydney | Melbourne | Brisbane | Adelaide | Perth | Hobart | Darwin

Other Formats:

Comma delimited format used in spreadsheet applications
http://www.bom.gov.au/fwo/IDQ60901/IDQ60901.94568.axf

JavaScript Object Notation format (JSON) in row-major order
http://www.bom.gov.au/fwo/IDQ60901/IDQ60901.94568.json